Time;durP1;ratioP1;P1;durP2;ratioP2;P2;SDS_P1;SDS_P2;PMS_P1;PMS_P2;Temp;Humidity;BMP_temperature;BMP_pressure;BME280_temperature;BME280_humidity;BME280_pressure;Samples;Min_cycle;Max_cycle;Signal;HPM_P1;HPM_P2
2023/09/23 00:01:47;;;;;;;7.45;4.18;;;13.10;99.90;;;;;;5032445;28;20042;-78
2023/09/23 00:04:13;;;;;;;7.50;4.15;;;13.00;99.90;;;;;;5046770;28;20391;-78
2023/09/23 00:06:38;;;;;;;5.10;3.78;;;12.90;99.90;;;;;;5049342;28;20098;-77
2023/09/23 00:09:04;;;;;;;7.35;4.40;;;12.90;99.90;;;;;;5053973;28;20476;-78
2023/09/23 00:11:30;;;;;;;5.15;4.03;;;12.90;99.90;;;;;;5051561;28;20037;-78
2023/09/23 00:13:56;;;;;;;8.60;4.95;;;12.90;99.90;;;;;;5053551;28;20099;-79
2023/09/23 00:16:22;;;;;;;6.20;3.80;;;12.90;99.90;;;;;;5051666;28;20045;-77
2023/09/23 00:18:47;;;;;;;6.68;4.72;;;12.80;99.90;;;;;;5049719;28;20052;-78
2023/09/23 00:21:13;;;;;;;9.07;4.70;;;12.80;99.90;;;;;;5047826;28;20102;-78
2023/09/23 00:23:40;;;;;;;7.43;3.88;;;12.90;99.90;;;;;;5055758;28;20044;-79
2023/09/23 00:26:10;;;;;;;4.72;2.97;;;12.70;99.90;;;;;;5055905;28;20041;-79
2023/09/23 00:28:36;;;;;;;6.50;3.10;;;12.80;99.90;;;;;;5060866;28;20042;-79
2023/09/23 00:31:14;;;;;;;6.47;3.17;;;12.70;99.90;;;;;;5056862;28;20053;-78
2023/09/23 00:33:42;;;;;;;8.35;3.20;;;12.70;99.90;;;;;;5066728;28;20094;-80
2023/09/23 00:36:09;;;;;;;7.50;3.13;;;12.70;99.90;;;;;;5062870;28;20048;-79
2023/09/23 00:38:38;;;;;;;4.75;2.83;;;12.70;99.90;;;;;;5071058;28;20056;-80
2023/09/23 00:41:06;;;;;;;5.25;3.28;;;12.80;99.90;;;;;;5065160;28;20080;-79
2023/09/23 00:43:35;;;;;;;5.50;2.47;;;12.70;99.90;;;;;;5066658;28;20057;-79
2023/09/23 00:46:04;;;;;;;4.13;2.67;;;12.70;99.90;;;;;;5052991;28;20093;-78
2023/09/23 00:48:36;;;;;;;4.18;2.38;;;12.70;99.90;;;;;;5049814;28;20051;-79
2023/09/23 00:51:03;;;;;;;4.32;2.45;;;12.70;99.90;;;;;;5057128;28;20045;-79
2023/09/23 00:53:29;;;;;;;6.65;2.50;;;12.60;99.90;;;;;;5058131;28;20395;-79
2023/09/23 00:55:57;;;;;;;3.75;2.42;;;12.60;99.90;;;;;;5057052;28;20048;-80
2023/09/23 00:58:26;;;;;;;3.97;2.30;;;12.60;99.90;;;;;;5051523;28;20057;-79
2023/09/23 01:00:55;;;;;;;4.47;2.67;;;12.60;99.90;;;;;;5055345;28;20053;-80
2023/09/23 01:03:21;;;;;;;3.28;2.00;;;12.60;99.90;;;;;;5051952;28;20091;-79
2023/09/23 01:05:54;;;;;;;5.97;2.20;;;12.60;99.90;;;;;;5038870;28;20033;-80
2023/09/23 01:08:31;;;;;;;3.47;1.90;;;12.50;99.90;;;;;;5056635;28;20041;-80
2023/09/23 01:10:57;;;;;;;5.70;1.90;;;12.50;99.90;;;;;;5037803;28;20471;-80
2023/09/23 01:13:24;;;;;;;7.15;1.88;;;12.90;99.90;;;;;;5059011;28;20120;-79
2023/09/23 01:15:51;;;;;;;3.10;1.80;;;12.50;99.90;;;;;;5050254;28;20450;-80
2023/09/23 01:18:17;;;;;;;3.10;1.83;;;12.50;99.90;;;;;;5023960;28;20327;-79
2023/09/23 01:20:46;;;;;;;5.55;1.77;;;12.50;99.90;;;;;;5037457;28;20044;-80
2023/09/23 01:23:15;;;;;;;2.50;1.52;;;12.40;99.90;;;;;;5056535;28;20049;-79
2023/09/23 01:25:44;;;;;;;3.40;1.70;;;12.40;99.90;;;;;;5058864;28;20134;-78
2023/09/23 01:28:11;;;;;;;6.78;2.00;;;12.40;99.90;;;;;;5047105;28;20037;-77
2023/09/23 01:30:38;;;;;;;4.65;2.25;;;12.40;99.90;;;;;;5053350;28;20437;-79
2023/09/23 01:33:07;;;;;;;5.90;2.45;;;12.40;99.90;;;;;;5053053;28;20419;-78
2023/09/23 01:35:33;;;;;;;4.55;2.20;;;12.40;99.90;;;;;;5057161;28;20049;-79
2023/09/23 01:37:59;;;;;;;5.63;2.47;;;12.40;99.90;;;;;;5052115;28;20033;-78
2023/09/23 01:40:29;;;;;;;3.25;1.90;;;12.30;99.90;;;;;;5069279;28;20483;-79
2023/09/23 01:42:55;;;;;;;5.95;2.30;;;12.30;99.90;;;;;;5051207;28;20052;-78
2023/09/23 01:45:22;;;;;;;11.30;3.00;;;12.30;99.90;;;;;;5051993;28;20037;-79
2023/09/23 01:47:49;;;;;;;4.85;2.70;;;12.30;99.90;;;;;;5057122;28;20407;-79
2023/09/23 01:50:17;;;;;;;9.50;3.97;;;12.20;99.90;;;;;;5057329;28;20066;-79
2023/09/23 01:52:46;;;;;;;7.05;3.70;;;12.20;99.90;;;;;;5057808;28;20411;-79
2023/09/23 01:55:16;;;;;;;6.70;3.42;;;12.20;99.90;;;;;;5056010;28;20048;-80
2023/09/23 01:57:48;;;;;;;5.18;3.05;;;12.20;99.90;;;;;;5053296;28;20487;-79
2023/09/23 02:00:28;;;;;;;9.32;2.83;;;12.20;99.90;;;;;;5045610;28;20033;-79
2023/09/23 02:02:55;;;;;;;5.82;2.67;;;12.20;99.90;;;;;;5031428;28;20462;-79
2023/09/23 02:05:23;;;;;;;5.25;2.60;;;12.20;99.90;;;;;;5058200;28;20399;-80
2023/09/23 02:07:50;;;;;;;6.13;2.40;;;12.90;99.90;;;;;;5024561;28;20499;-79
2023/09/23 02:10:21;;;;;;;4.88;2.38;;;12.10;99.90;;;;;;5056472;28;20043;-79
2023/09/23 02:12:47;;;;;;;4.57;1.88;;;12.10;99.90;;;;;;5054118;28;20044;-80
2023/09/23 02:15:16;;;;;;;3.90;1.90;;;12.10;99.90;;;;;;5049064;28;20137;-80
2023/09/23 02:17:46;;;;;;;3.97;1.65;;;12.10;99.90;;;;;;5056927;28;20037;-80
2023/09/23 02:20:21;;;;;;;5.00;1.52;;;12.10;99.90;;;;;;5041190;28;20136;-81
2023/09/23 02:22:49;;;;;;;6.90;1.92;;;12.10;99.90;;;;;;5057286;28;20080;-80
2023/09/23 02:25:16;;;;;;;3.58;1.88;;;12.10;99.90;;;;;;5058314;28;20463;-82
2023/09/23 02:27:44;;;;;;;4.18;1.67;;;12.10;99.90;;;;;;5052517;28;20380;-79
2023/09/23 02:30:10;;;;;;;4.82;2.30;;;12.00;99.90;;;;;;5051403;28;20056;-80
2023/09/23 02:32:44;;;;;;;4.68;2.15;;;12.00;99.90;;;;;;5054625;28;20499;-79
2023/09/23 02:35:11;;;;;;;4.93;2.67;;;12.00;99.90;;;;;;5058377;28;20048;-79
2023/09/23 02:37:44;;;;;;;4.65;2.60;;;12.00;99.90;;;;;;5052868;28;20491;-80
2023/09/23 02:40:17;;;;;;;4.65;3.05;;;12.50;99.90;;;;;;5056838;28;20056;-78
2023/09/23 02:42:47;;;;;;;6.22;3.40;;;12.00;99.90;;;;;;5047292;28;20067;-78
2023/09/23 02:45:15;;;;;;;5.65;3.75;;;12.10;99.90;;;;;;5054578;28;20033;-79
2023/09/23 02:47:43;;;;;;;;;;;12.00;99.90;;;;;;5057703;28;20064;-79
2023/09/23 02:50:13;;;;;;;7.95;4.30;;;11.90;99.90;;;;;;5055326;28;20283;-78
2023/09/23 02:52:44;;;;;;;9.02;4.20;;;12.00;99.90;;;;;;5055468;28;20107;-78
2023/09/23 02:55:15;;;;;;;8.10;4.68;;;11.90;99.90;;;;;;5051129;28;20048;-79
2023/09/23 02:57:54;;;;;;;8.70;5.15;;;12.40;99.90;;;;;;5047483;28;20037;-79
2023/09/23 03:00:23;;;;;;;8.93;5.43;;;12.00;99.90;;;;;;5041885;28;20449;-79
2023/09/23 03:02:57;;;;;;;8.93;6.03;;;11.90;99.90;;;;;;5049937;28;20107;-79
2023/09/23 03:05:28;;;;;;;6.80;5.53;;;11.90;99.90;;;;;;5055830;28;20124;-79
2023/09/23 03:07:58;;;;;;;10.80;6.82;;;11.90;99.90;;;;;;5054531;28;20036;-78
2023/09/23 03:10:39;;;;;;;10.13;7.15;;;11.90;99.90;;;;;;5051349;28;20041;-80
2023/09/23 03:13:07;;;;;;;8.88;6.38;;;11.90;99.90;;;;;;5049853;28;20080;-79
2023/09/23 03:16:08;;;;;;;;;;;11.90;99.90;;;;;;5052492;28;20063;-80
2023/09/23 03:18:38;;;;;;;14.27;7.88;;;11.90;99.90;;;;;;5049297;28;19932;-78
2023/09/23 03:21:08;;;;;;;11.23;7.65;;;11.90;99.90;;;;;;5055718;28;20068;-79
2023/09/23 03:23:39;;;;;;;10.50;7.85;;;11.90;99.90;;;;;;5057396;28;20140;-78
2023/09/23 03:26:09;;;;;;;9.82;7.05;;;11.90;99.90;;;;;;5049537;28;20512;-79
2023/09/23 03:28:44;;;;;;;10.73;7.65;;;11.90;99.90;;;;;;5049762;28;20046;-79
2023/09/23 03:31:09;;;;;;;14.73;9.27;;;11.90;99.90;;;;;;5028696;28;20509;-78
2023/09/23 03:33:36;;;;;;;13.90;8.02;;;11.80;99.90;;;;;;5054135;28;20086;-79
2023/09/23 03:36:05;;;;;;;10.70;7.97;;;11.80;99.90;;;;;;5053016;28;20045;-79
2023/09/23 03:38:33;;;;;;;10.32;8.40;;;11.80;99.90;;;;;;5056067;28;20049;-79
2023/09/23 03:40:59;;;;;;;11.82;8.77;;;11.80;99.90;;;;;;5051440;28;20443;-79
2023/09/23 03:43:26;;;;;;;14.73;9.77;;;11.80;99.90;;;;;;5046625;28;20041;-78
2023/09/23 03:45:52;;;;;;;11.65;8.57;;;11.80;99.90;;;;;;5051053;28;20037;-79
2023/09/23 03:48:19;;;;;;;13.20;9.52;;;11.70;99.90;;;;;;5057139;28;20146;-78
2023/09/23 03:50:52;;;;;;;14.02;8.82;;;11.70;99.90;;;;;;5046599;28;20784;-78
2023/09/23 03:53:21;;;;;;;12.40;8.35;;;11.70;99.90;;;;;;5051493;28;20116;-79
2023/09/23 03:55:55;;;;;;;12.52;9.43;;;11.70;99.90;;;;;;5051904;28;20052;-78
2023/09/23 03:58:20;;;;;;;12.30;9.30;;;11.70;99.90;;;;;;5044516;28;20041;-79
2023/09/23 04:00:47;;;;;;;15.02;10.07;;;11.70;99.90;;;;;;5040227;28;20943;-79
2023/09/23 04:03:13;;;;;;;12.55;8.73;;;11.70;99.90;;;;;;5033217;28;20051;-77
2023/09/23 04:05:39;;;;;;;14.30;9.30;;;11.70;99.90;;;;;;5052268;28;20399;-78
2023/09/23 04:08:06;;;;;;;13.32;9.07;;;11.70;99.90;;;;;;5050188;28;20040;-79
2023/09/23 04:10:35;;;;;;;11.02;9.38;;;11.70;99.90;;;;;;5050152;28;20046;-78
2023/09/23 04:13:05;;;;;;;12.15;9.07;;;11.60;99.90;;;;;;5052734;28;20050;-78
2023/09/23 04:15:32;;;;;;;16.02;9.80;;;11.60;99.90;;;;;;5059096;28;20040;-78
2023/09/23 04:17:58;;;;;;;14.63;10.07;;;11.60;99.90;;;;;;5054892;28;20045;-78
2023/09/23 04:20:24;;;;;;;14.90;10.68;;;11.60;99.90;;;;;;5060422;28;20064;-77
2023/09/23 04:22:50;;;;;;;14.50;10.68;;;11.60;99.90;;;;;;5059784;28;20061;-78
2023/09/23 04:25:16;;;;;;;15.25;9.85;;;11.60;99.90;;;;;;5061612;28;20540;-78
2023/09/23 04:27:42;;;;;;;14.60;10.55;;;11.60;99.90;;;;;;5064465;28;20119;-77
2023/09/23 04:30:09;;;;;;;15.05;9.85;;;11.60;99.90;;;;;;5054189;28;20091;-78
2023/09/23 04:32:39;;;;;;;19.25;11.18;;;11.60;99.90;;;;;;5050142;28;20084;-79
2023/09/23 04:35:11;;;;;;;13.13;9.95;;;11.60;99.90;;;;;;5062402;28;20052;-78
2023/09/23 04:37:37;;;;;;;12.95;10.40;;;11.60;99.90;;;;;;5057644;28;20060;-78
2023/09/23 04:40:11;;;;;;;15.50;9.63;;;11.70;99.90;;;;;;5052948;28;20096;-79
2023/09/23 04:42:39;;;;;;;12.32;9.05;;;11.60;99.90;;;;;;5052177;28;20101;-80
2023/09/23 04:45:05;;;;;;;12.63;8.47;;;11.60;99.90;;;;;;5061198;28;20131;-78
2023/09/23 04:47:32;;;;;;;16.50;9.75;;;11.60;99.90;;;;;;5060457;28;20037;-79
2023/09/23 04:50:00;;;;;;;12.52;9.95;;;11.60;99.90;;;;;;5060696;28;20167;-77
2023/09/23 04:52:27;;;;;;;15.02;8.50;;;11.50;99.90;;;;;;5058638;28;20037;-77
2023/09/23 04:54:54;;;;;;;13.23;9.35;;;11.50;99.90;;;;;;5057625;28;20049;-78
2023/09/23 04:57:20;;;;;;;13.50;8.85;;;11.50;99.90;;;;;;5062494;28;20475;-78
2023/09/23 04:59:46;;;;;;;14.45;9.45;;;11.50;99.90;;;;;;5052829;28;20044;-79
2023/09/23 05:02:13;;;;;;;10.73;8.20;;;11.50;99.90;;;;;;5059096;28;20037;-77
2023/09/23 05:04:39;;;;;;;11.70;8.55;;;11.50;99.90;;;;;;5057689;28;20072;-78
2023/09/23 05:07:05;;;;;;;11.70;8.23;;;11.50;99.90;;;;;;5066862;28;20406;-79
2023/09/23 05:09:31;;;;;;;13.52;8.30;;;11.50;99.90;;;;;;5071543;28;20044;-79
2023/09/23 05:11:57;;;;;;;12.25;9.00;;;11.50;99.90;;;;;;5066412;28;20045;-79
2023/09/23 05:14:25;;;;;;;17.88;9.60;;;11.50;99.90;;;;;;5065370;28;20040;-78
2023/09/23 05:16:51;;;;;;;16.83;10.10;;;11.50;99.90;;;;;;5051571;28;20163;-78
2023/09/23 05:19:20;;;;;;;11.30;8.45;;;11.50;99.90;;;;;;5045563;28;20049;-79
2023/09/23 05:21:46;;;;;;;11.73;8.55;;;11.40;99.90;;;;;;5065683;28;20037;-78
2023/09/23 05:24:12;;;;;;;10.35;8.07;;;11.40;99.90;;;;;;5063971;28;20033;-79
2023/09/23 05:26:40;;;;;;;12.82;8.95;;;11.40;99.90;;;;;;5078551;28;20067;-77
2023/09/23 05:29:08;;;;;;;11.10;8.30;;;11.40;99.90;;;;;;5053856;28;20052;-78
2023/09/23 05:31:36;;;;;;;;;;;11.40;99.90;;;;;;5064768;28;20065;-80
2023/09/23 05:34:03;;;;;;;10.48;8.50;;;11.50;99.90;;;;;;5045522;28;19947;-78
2023/09/23 05:36:29;;;;;;;11.07;8.05;;;11.30;99.90;;;;;;5058735;28;20041;-79
2023/09/23 05:38:55;;;;;;;10.32;8.75;;;11.30;99.90;;;;;;5045635;28;20041;-78
2023/09/23 05:41:22;;;;;;;13.77;9.55;;;11.30;99.90;;;;;;5064513;28;20087;-79
2023/09/23 05:43:49;;;;;;;11.25;8.73;;;11.30;99.90;;;;;;5065266;28;20072;-79
2023/09/23 05:46:15;;;;;;;11.90;8.57;;;11.30;99.90;;;;;;5059493;28;20048;-78
2023/09/23 05:48:41;;;;;;;10.93;8.65;;;11.30;99.90;;;;;;5058399;28;20045;-79
2023/09/23 05:51:07;;;;;;;13.05;8.88;;;11.30;99.90;;;;;;5040297;28;20059;-77
2023/09/23 05:53:33;;;;;;;14.75;9.93;;;11.30;99.90;;;;;;5054778;28;20041;-79
2023/09/23 05:56:00;;;;;;;14.48;9.82;;;11.30;99.90;;;;;;5063664;28;20045;-78
2023/09/23 05:58:26;;;;;;;13.10;10.30;;;11.30;99.90;;;;;;5055265;28;20049;-78
2023/09/23 06:00:54;;;;;;;14.38;10.80;;;11.20;99.90;;;;;;5056256;28;20048;-79
2023/09/23 06:03:20;;;;;;;17.38;11.60;;;11.20;99.90;;;;;;5056269;28;20045;-80
2023/09/23 06:05:46;;;;;;;13.02;10.65;;;11.60;99.90;;;;;;5050969;28;20056;-79
2023/09/23 06:08:12;;;;;;;16.50;10.77;;;11.20;99.90;;;;;;5058622;28;20033;-79
2023/09/23 06:10:39;;;;;;;13.98;10.75;;;11.20;99.90;;;;;;5058282;28;20052;-81
2023/09/23 06:13:09;;;;;;;15.02;11.77;;;11.30;99.90;;;;;;5060339;28;20052;-81
2023/09/23 06:15:35;;;;;;;17.77;11.70;;;11.30;99.90;;;;;;5062313;28;20951;-80
2023/09/23 06:18:01;;;;;;;14.90;12.13;;;11.30;99.90;;;;;;5062154;28;20037;-79
2023/09/23 06:20:27;;;;;;;16.65;12.00;;;11.30;99.90;;;;;;5056870;28;20062;-79
2023/09/23 06:22:54;;;;;;;16.95;12.45;;;11.80;99.90;;;;;;5055100;28;20044;-80
2023/09/23 06:25:20;;;;;;;16.75;12.82;;;11.40;99.90;;;;;;5052693;28;20124;-80
2023/09/23 06:27:46;;;;;;;17.42;12.77;;;11.40;99.90;;;;;;5056691;28;20068;-80
2023/09/23 06:30:15;;;;;;;18.08;12.88;;;11.40;99.90;;;;;;5038292;28;20120;-80
2023/09/23 06:32:41;;;;;;;21.30;13.50;;;11.50;99.90;;;;;;5054030;28;20094;-79
2023/09/23 06:35:10;;;;;;;20.02;13.65;;;11.50;99.90;;;;;;5053765;28;20437;-78
2023/09/23 06:37:35;;;;;;;19.33;13.73;;;11.50;99.90;;;;;;5052040;28;20041;-79
2023/09/23 06:40:01;;;;;;;26.08;14.40;;;11.60;99.90;;;;;;5053966;28;20199;-77
2023/09/23 06:42:27;;;;;;;24.08;15.27;;;11.60;99.90;;;;;;5057747;28;20040;-79
2023/09/23 06:44:53;;;;;;;22.33;15.27;;;11.70;99.90;;;;;;5051407;28;20047;-78
2023/09/23 06:47:20;;;;;;;21.30;15.50;;;11.80;99.90;;;;;;5050593;28;20037;-78
2023/09/23 06:49:45;;;;;;;22.45;16.27;;;11.80;99.90;;;;;;5036784;28;20053;-78
2023/09/23 06:52:12;;;;;;;20.73;15.55;;;12.70;99.90;;;;;;5047097;28;20675;-77
2023/09/23 06:54:41;;;;;;;20.10;15.75;;;12.10;99.90;;;;;;5054495;28;20088;-79
2023/09/23 06:57:06;;;;;;;20.45;16.17;;;12.20;99.90;;;;;;5046882;28;20037;-79
2023/09/23 06:59:35;;;;;;;22.67;17.35;;;12.30;99.90;;;;;;5054680;28;20048;-80
2023/09/23 07:02:00;;;;;;;27.02;16.50;;;12.30;99.90;;;;;;5048615;28;20072;-81
2023/09/23 07:04:26;;;;;;;24.33;17.75;;;12.30;99.90;;;;;;5054966;28;20036;-78
2023/09/23 07:06:52;;;;;;;21.92;16.73;;;12.30;99.90;;;;;;5051438;28;20045;-78
2023/09/23 07:09:18;;;;;;;23.58;17.52;;;12.30;99.90;;;;;;5057164;28;20124;-81
2023/09/23 07:11:46;;;;;;;23.98;17.45;;;12.30;99.90;;;;;;5034872;28;20037;-78
2023/09/23 07:14:12;;;;;;;27.67;18.42;;;12.20;99.90;;;;;;5057619;28;20043;-80
2023/09/23 07:16:38;;;;;;;27.23;18.90;;;12.30;99.90;;;;;;5051329;28;20096;-79
2023/09/23 07:19:04;;;;;;;27.15;17.58;;;12.40;99.90;;;;;;5053601;28;20057;-78
2023/09/23 07:21:29;;;;;;;24.27;18.15;;;12.60;99.90;;;;;;5032120;28;20045;-80
2023/09/23 07:23:57;;;;;;;22.75;16.52;;;12.40;99.90;;;;;;5059552;28;20398;-78
2023/09/23 07:26:23;;;;;;;24.33;17.13;;;12.40;99.90;;;;;;5050145;28;20127;-78
2023/09/23 07:28:52;;;;;;;25.10;17.10;;;12.50;99.90;;;;;;5057893;28;20060;-80
2023/09/23 07:31:18;;;;;;;21.30;16.65;;;12.50;99.90;;;;;;5054422;28;20064;-80
2023/09/23 07:33:44;;;;;;;23.90;17.15;;;12.60;99.90;;;;;;5049609;28;20060;-79
2023/09/23 07:36:13;;;;;;;20.58;15.98;;;12.60;99.90;;;;;;5063144;28;20037;-79
2023/09/23 07:38:40;;;;;;;24.23;16.08;;;12.70;99.90;;;;;;5050640;28;20048;-79
2023/09/23 07:41:07;;;;;;;23.27;16.63;;;12.80;99.90;;;;;;5057262;28;20092;-79
2023/09/23 07:43:32;;;;;;;21.95;15.93;;;12.80;99.90;;;;;;5058021;28;20498;-77
2023/09/23 07:45:58;;;;;;;23.05;16.00;;;12.90;99.90;;;;;;5055697;28;20041;-80
2023/09/23 07:48:24;;;;;;;26.63;16.65;;;13.00;99.90;;;;;;5057521;28;20255;-78
2023/09/23 07:50:50;;;;;;;19.58;15.27;;;13.00;99.90;;;;;;5062016;28;20457;-81
2023/09/23 07:53:16;;;;;;;19.48;14.88;;;13.00;99.90;;;;;;5050037;28;20093;-82
2023/09/23 07:55:43;;;;;;;23.73;16.30;;;13.20;99.90;;;;;;5059523;28;20045;-80
2023/09/23 07:58:09;;;;;;;22.57;15.87;;;13.40;99.90;;;;;;5065850;28;20116;-80
2023/09/23 08:00:36;;;;;;;20.58;15.45;;;13.60;99.90;;;;;;5064057;28;20053;-79
2023/09/23 08:03:01;;;;;;;20.73;15.10;;;13.80;99.90;;;;;;5058089;28;20048;-79
2023/09/23 08:05:29;;;;;;;17.55;13.23;;;14.00;99.90;;;;;;5031521;28;20049;-82
2023/09/23 08:07:58;;;;;;;21.67;13.88;;;14.10;99.90;;;;;;5048216;28;20053;-80
2023/09/23 08:10:24;;;;;;;22.92;13.95;;;14.20;99.90;;;;;;5048052;28;20071;-80
2023/09/23 08:12:51;;;;;;;18.95;13.13;;;14.20;99.90;;;;;;5059044;28;20045;-82
2023/09/23 08:15:17;;;;;;;17.52;12.27;;;14.20;99.90;;;;;;5065168;28;20025;-80
2023/09/23 08:17:46;;;;;;;24.35;14.63;;;14.20;99.90;;;;;;5061560;28;20080;-82
2023/09/23 08:20:18;;;;;;;18.73;13.35;;;14.20;99.90;;;;;;5066274;28;20060;-80
2023/09/23 08:22:47;;;;;;;20.90;13.77;;;14.10;99.90;;;;;;5057104;28;20038;-80
2023/09/23 08:25:15;;;;;;;18.50;12.57;;;14.10;99.90;;;;;;5043665;28;20081;-80
2023/09/23 08:27:41;;;;;;;21.27;13.43;;;14.10;99.90;;;;;;5059288;28;20120;-78
2023/09/23 08:30:10;;;;;;;19.52;12.68;;;14.40;99.90;;;;;;5060674;28;20040;-80
2023/09/23 08:32:39;;;;;;;17.63;12.77;;;14.10;99.90;;;;;;5060302;28;20484;-81
2023/09/23 08:35:07;;;;;;;20.60;14.07;;;14.20;99.90;;;;;;5055177;28;20037;-82
2023/09/23 08:37:33;;;;;;;20.50;13.98;;;14.20;99.90;;;;;;5057300;28;20052;-80
2023/09/23 08:40:11;;;;;;;27.92;12.25;;;14.30;99.90;;;;;;5054590;28;20041;-80
2023/09/23 08:42:40;;;;;;;17.05;11.32;;;14.30;99.90;;;;;;5061283;28;20100;-83
2023/09/23 08:45:10;;;;;;;18.83;11.63;;;14.30;99.90;;;;;;5070786;28;20387;-82
2023/09/23 08:47:43;;;;;;;21.15;11.80;;;14.50;99.90;;;;;;5068351;28;20037;-82
2023/09/23 08:50:20;;;;;;;19.02;11.90;;;14.60;99.90;;;;;;5068360;28;20036;-80
2023/09/23 08:52:47;;;;;;;14.07;10.70;;;14.90;99.90;;;;;;5049136;28;20037;-80
2023/09/23 08:55:15;;;;;;;15.18;10.50;;;15.10;99.90;;;;;;5070433;28;20167;-81
2023/09/23 08:57:41;;;;;;;17.05;10.55;;;15.40;99.90;;;;;;5074801;28;20083;-80
2023/09/23 09:00:08;;;;;;;15.43;9.23;;;15.60;99.90;;;;;;5068506;28;20037;-80
2023/09/23 09:02:34;;;;;;;13.60;8.60;;;15.80;99.90;;;;;;5061092;28;20071;-80
2023/09/23 09:05:03;;;;;;;11.30;8.00;;;16.00;99.90;;;;;;5072140;28;20045;-80
2023/09/23 09:07:36;;;;;;;11.15;7.93;;;16.20;99.90;;;;;;5067895;28;20124;-81
2023/09/23 09:10:04;;;;;;;10.95;7.03;;;16.40;99.90;;;;;;5065141;28;20051;-82
2023/09/23 09:12:34;;;;;;;10.20;6.45;;;16.60;99.90;;;;;;5064792;28;20052;-81
2023/09/23 09:15:06;;;;;;;7.45;5.47;;;16.70;99.90;;;;;;5075419;28;20097;-81
2023/09/23 09:17:35;;;;;;;10.38;5.65;;;16.70;99.90;;;;;;5039570;28;20099;-81
2023/09/23 09:20:08;;;;;;;10.85;5.00;;;16.80;99.90;;;;;;5079993;28;20052;-80
2023/09/23 09:22:36;;;;;;;8.77;5.15;;;16.80;99.90;;;;;;5066367;28;20076;-83
2023/09/23 09:25:03;;;;;;;8.85;5.20;;;16.90;99.90;;;;;;5049801;28;20092;-82
2023/09/23 09:27:29;;;;;;;5.72;4.90;;;17.00;99.90;;;;;;5064988;28;20041;-82
2023/09/23 09:29:55;;;;;;;6.03;4.72;;;17.10;99.90;;;;;;5063920;28;20056;-82
2023/09/23 09:32:29;;;;;;;9.70;5.18;;;17.30;99.90;;;;;;5062924;28;20060;-82
2023/09/23 09:35:00;;;;;;;6.72;4.50;;;17.50;99.90;;;;;;5046931;28;20044;-82
2023/09/23 09:37:31;;;;;;;14.30;5.15;;;17.40;99.90;;;;;;5058387;28;20045;-82
2023/09/23 09:40:00;;;;;;;8.07;4.47;;;17.30;99.90;;;;;;5065178;28;20109;-82
2023/09/23 09:42:33;;;;;;;10.40;4.53;;;17.20;99.90;;;;;;5043370;28;20044;-84
2023/09/23 09:44:59;;;;;;;5.43;3.78;;;17.10;99.90;;;;;;5062634;28;20045;-81
2023/09/23 09:47:27;;;;;;;5.70;3.47;;;17.30;99.90;;;;;;5039525;28;20053;-82
2023/09/23 09:49:56;;;;;;;6.15;3.67;;;16.80;99.90;;;;;;5054108;28;20140;-82
2023/09/23 09:52:28;;;;;;;6.20;3.75;;;17.80;99.90;;;;;;5041108;28;20407;-82
2023/09/23 09:54:57;;;;;;;6.40;3.03;;;17.80;99.90;;;;;;5050507;28;20049;-84
2023/09/23 09:57:25;;;;;;;9.15;3.00;;;17.60;99.90;;;;;;5051357;28;20076;-82
2023/09/23 09:59:53;;;;;;;10.30;2.92;;;17.40;99.90;;;;;;5034959;28;20053;-82
2023/09/23 10:02:21;;;;;;;7.40;3.13;;;17.20;99.90;;;;;;5056415;28;20692;-84
2023/09/23 10:04:51;;;;;;;5.43;2.70;;;17.10;99.90;;;;;;5037885;28;20052;-82
2023/09/23 10:07:22;;;;;;;11.65;2.83;;;17.10;99.90;;;;;;5058483;28;20069;-83
2023/09/23 10:09:55;;;;;;;4.43;2.40;;;17.50;99.90;;;;;;5059846;28;20040;-82
2023/09/23 10:12:31;;;;;;;5.43;2.03;;;17.80;99.90;;;;;;5060601;28;20095;-82
2023/09/23 10:14:58;;;;;;;4.53;2.65;;;18.10;99.90;;;;;;5056585;28;20041;-80
2023/09/23 10:17:32;;;;;;;7.57;2.30;;;18.00;99.90;;;;;;5049559;28;20045;-81
2023/09/23 10:20:08;;;;;;;6.55;2.20;;;17.90;99.90;;;;;;5053956;28;20296;-81
2023/09/23 10:22:33;;;;;;;4.40;2.47;;;17.70;99.90;;;;;;5064774;28;20044;-81
2023/09/23 10:25:04;;;;;;;6.00;2.25;;;17.50;99.90;;;;;;5042645;28;20040;-81
2023/09/23 10:27:33;;;;;;;6.70;2.65;;;17.40;99.90;;;;;;5045104;28;20083;-81
2023/09/23 10:30:00;;;;;;;8.35;3.13;;;17.20;99.90;;;;;;5060519;28;20088;-82
2023/09/23 10:32:26;;;;;;;9.07;3.17;;;17.00;99.90;;;;;;5043557;28;20088;-80
2023/09/23 10:34:55;;;;;;;7.07;2.88;;;16.80;99.90;;;;;;5059776;28;20099;-81
2023/09/23 10:37:32;;;;;;;7.72;2.75;;;16.70;99.90;;;;;;5063683;28;20048;-80
2023/09/23 10:40:12;;;;;;;6.28;3.00;;;16.60;99.90;;;;;;5065335;28;20079;-81
2023/09/23 10:42:40;;;;;;;4.75;3.08;;;16.30;99.90;;;;;;5049059;28;20096;-82
2023/09/23 10:45:12;;;;;;;7.15;3.05;;;16.10;99.90;;;;;;5063540;28;20046;-82
2023/09/23 10:47:43;;;;;;;7.00;3.03;;;16.00;99.90;;;;;;5034226;28;20053;-81
2023/09/23 10:50:09;;;;;;;8.18;3.15;;;15.90;99.90;;;;;;5069352;28;20084;-81
2023/09/23 10:52:36;;;;;;;8.77;3.45;;;15.80;99.90;;;;;;5070205;28;20037;-82
2023/09/23 10:55:03;;;;;;;7.05;3.28;;;15.70;99.90;;;;;;5048890;28;20068;-81
2023/09/23 10:57:29;;;;;;;8.82;4.47;;;15.70;99.90;;;;;;5069262;28;20083;-79
2023/09/23 10:59:55;;;;;;;6.82;3.53;;;16.20;99.90;;;;;;5069660;28;20056;-80
2023/09/23 11:02:25;;;;;;;7.75;3.33;;;16.70;99.90;;;;;;5069055;28;20039;-79
2023/09/23 11:04:54;;;;;;;6.35;3.05;;;16.90;99.90;;;;;;5063252;28;20041;-80
2023/09/23 11:07:20;;;;;;;7.53;3.05;;;16.80;99.90;;;;;;5059568;28;20048;-80
2023/09/23 11:09:46;;;;;;;7.10;2.65;;;16.60;99.90;;;;;;5048874;28;20049;-80
2023/09/23 11:12:13;;;;;;;9.48;2.97;;;16.50;99.90;;;;;;5059560;28;20030;-79
2023/09/23 11:14:46;;;;;;;6.15;2.75;;;16.30;99.90;;;;;;5046956;28;20120;-78
2023/09/23 11:17:31;;;;;;;8.57;2.60;;;16.20;99.90;;;;;;5060388;28;20049;-79
2023/09/23 11:20:00;;;;;;;5.90;2.42;;;16.20;99.90;;;;;;5065843;28;20475;-78
2023/09/23 11:22:30;;;;;;;9.52;2.53;;;16.00;99.90;;;;;;5049433;28;20065;-79
2023/09/23 11:24:59;;;;;;;5.75;2.42;;;16.00;99.90;;;;;;5060999;28;20041;-79
2023/09/23 11:27:26;;;;;;;6.57;3.20;;;15.90;99.90;;;;;;5065442;28;20049;-83
2023/09/23 11:29:56;;;;;;;8.63;3.42;;;15.90;99.90;;;;;;5053953;28;20045;-78
2023/09/23 11:32:26;;;;;;;11.10;3.63;;;15.90;99.90;;;;;;5045343;28;20487;-79
2023/09/23 11:34:53;;;;;;;7.80;3.75;;;16.00;99.90;;;;;;5063727;28;20060;-78
2023/09/23 11:37:22;;;;;;;9.70;3.38;;;16.10;99.90;;;;;;5067118;28;20044;-81
2023/09/23 11:39:49;;;;;;;6.78;2.92;;;16.10;99.90;;;;;;5063690;28;20038;-79
2023/09/23 11:42:15;;;;;;;5.07;2.92;;;16.10;99.90;;;;;;5071911;28;20037;-81
2023/09/23 11:44:40;;;;;;;7.13;3.55;;;16.00;99.90;;;;;;5072100;28;20064;-80
2023/09/23 11:47:09;;;;;;;7.47;3.55;;;16.00;99.90;;;;;;5070300;28;20055;-81
2023/09/23 11:49:36;;;;;;;7.20;3.20;;;15.90;99.90;;;;;;5060872;28;20059;-79
2023/09/23 11:52:04;;;;;;;6.95;2.80;;;15.90;99.90;;;;;;5049819;28;20568;-79
2023/09/23 11:54:31;;;;;;;8.15;3.00;;;15.80;99.90;;;;;;5056781;28;20038;-80
2023/09/23 11:56:56;;;;;;;6.28;3.20;;;15.70;99.90;;;;;;5060053;28;20083;-81
2023/09/23 11:59:23;;;;;;;7.85;3.35;;;15.70;99.90;;;;;;5034887;28;20038;-81
2023/09/23 12:01:50;;;;;;;7.90;3.22;;;15.60;99.90;;;;;;5050614;28;20048;-80
2023/09/23 12:04:16;;;;;;;7.47;3.80;;;15.70;99.90;;;;;;5049519;28;20045;-82
2023/09/23 12:06:44;;;;;;;9.48;2.80;;;15.70;99.90;;;;;;5060257;28;20045;-80
2023/09/23 12:09:10;;;;;;;5.95;2.58;;;15.80;99.90;;;;;;5060507;28;20053;-80
2023/09/23 12:11:37;;;;;;;6.35;2.35;;;15.80;99.90;;;;;;5048277;28;20041;-80
2023/09/23 12:14:03;;;;;;;6.57;2.15;;;15.80;99.90;;;;;;5061132;28;20037;-80
2023/09/23 12:16:32;;;;;;;2.30;1.75;;;15.80;99.90;;;;;;5062098;28;20041;-81
2023/09/23 12:18:57;;;;;;;4.35;1.40;;;15.70;99.90;;;;;;5067539;28;20048;-81
2023/09/23 12:21:23;;;;;;;2.63;1.50;;;15.70;99.90;;;;;;5066805;28;20041;-80
2023/09/23 12:23:51;;;;;;;6.50;1.55;;;15.70;99.90;;;;;;5056598;28;20045;-80
2023/09/23 12:26:18;;;;;;;3.58;1.20;;;15.80;99.90;;;;;;5058782;28;20052;-80
2023/09/23 12:28:44;;;;;;;2.83;1.48;;;15.80;99.90;;;;;;5057720;28;20053;-80
2023/09/23 12:31:10;;;;;;;3.72;1.42;;;15.80;99.90;;;;;;5052272;28;20055;-80
2023/09/23 12:33:36;;;;;;;3.05;1.55;;;15.80;99.90;;;;;;5062653;28;20044;-80
2023/09/23 12:36:02;;;;;;;2.88;1.60;;;15.80;99.90;;;;;;5055697;28;20455;-80
2023/09/23 12:38:27;;;;;;;3.53;1.65;;;16.00;99.90;;;;;;5061087;28;20510;-84
2023/09/23 12:40:53;;;;;;;2.95;1.80;;;16.30;99.90;;;;;;5059446;28;20051;-81
2023/09/23 12:43:19;;;;;;;5.38;2.00;;;16.50;99.90;;;;;;5063635;28;20041;-81
2023/09/23 12:45:45;;;;;;;5.07;2.03;;;17.00;99.90;;;;;;5062807;28;20048;-81